Reklama

Seznam meteostanic a jejich METAR

Vyhledat místa podle abecedy:
A B C D E F G H I J K L M N O P Q R S T U V W X Y Z

Filtrovat:

ID stanice:
a/nebo
Název místa (fulltext):
 
Místo (ID)Naposledy načteno 
Pardubice (Pardubice) 08.04.2020 00:00 UTC Zobrazit data
Místo: Pardubice
Teplota: 3 °C (pocitová: -0.6 °C)
Vítr: 1 m/s z(e) 90°
Počasí: slunečno
Dohlednost: 20 km
Zákl. oblačnosti: N/A
Vlhkost: 75%
Pec pod Sněžkou (Pec p.Snez) 08.04.2020 00:00 UTC Zobrazit data
Místo: Pec pod Sněžkou
Teplota: 2 °C (pocitová: -1.8 °C)
Vítr: 1 m/s z(e) 220°
Počasí:
Dohlednost: 30 km
Zákl. oblačnosti: N/A
Vlhkost: 87%
Plzeň město - Mikulka (Plzen/Miku) 08.04.2020 00:00 UTC Zobrazit data
Místo: Plzeň město - Mikulka
Teplota: 9 °C (pocitová: 5.6 °C)
Vítr: 2 m/s z(e) 10°
Počasí:
Dohlednost: 30 km
Zákl. oblačnosti: N/A
Vlhkost: 58%
Polom (Polom) 08.04.2020 00:00 UTC Zobrazit data
Místo: Polom
Teplota: 11 °C (pocitová: 9.2 °C)
Vítr: 1 m/s z(e) 130°
Počasí: slunečno
Dohlednost: 20 km
Zákl. oblačnosti: N/A
Vlhkost: 26%
Praha - Karlov (Praha/Kar) 08.04.2020 00:00 UTC Zobrazit data
Místo: Praha - Karlov
Teplota: 10 °C (pocitová: 8 °C)
Vítr: 1 m/s z(e) 230°
Počasí:
Dohlednost: 29 km
Zákl. oblačnosti: N/A
Vlhkost: 50%
Praha - Kbely (Praha/Kbe) 08.04.2020 00:00 UTC Zobrazit data
Místo: Praha - Kbely
Teplota: 6 °C (pocitová: 0.7 °C)
Vítr: 3 m/s z(e) 40°
Počasí: slunečno
Dohlednost: 20 km
Zákl. oblačnosti: N/A
Vlhkost: 61%
Praha - Libuš (Praha/Lib) 08.04.2020 00:00 UTC Zobrazit data
Místo: Praha - Libuš
Teplota: 9 °C (pocitová: 5.6 °C)
Vítr: 2 m/s z(e) 0°
Počasí:
Dohlednost: 35 km
Zákl. oblačnosti: N/A
Vlhkost: 43%
Praha - Ruzyně (Praha/Ru) 08.04.2020 00:00 UTC Zobrazit data
Místo: Praha - Ruzyně
Teplota: 11 °C (pocitová: 7.3 °C)
Vítr: 3 m/s z(e) 150°
Počasí: slunečno
Dohlednost: 30 km
Zákl. oblačnosti: N/A
Vlhkost: 35%
Přibyslav (Pribyslav) 08.04.2020 00:00 UTC Zobrazit data
Místo: Přibyslav
Teplota: 5 °C (pocitová: -1.5 °C)
Vítr: 4 m/s z(e) 110°
Počasí:
Dohlednost: 35 km
Zákl. oblačnosti: N/A
Vlhkost: 49%
Přimda (Primda) 08.04.2020 00:00 UTC Zobrazit data
Místo: Přimda
Teplota: 9 °C (pocitová: 4.7 °C)
Vítr: 3 m/s z(e) 90°
Počasí:
Dohlednost: 35 km
Zákl. oblačnosti: N/A
Vlhkost: 50%
Pago Pago (NSTU) 07.04.2020 23:50 UTC Zobrazit METAR
NSTU 072350Z 01007KT 12SM SCT110 BKN220 32/24 A2979 RMK SLP088 60000 8/071 T03150243 10315 20255 57015
Palanga (EYPA) 07.04.2020 14:50 UTC Zobrazit METAR
EYPA 071450Z AUTO 26005KT 180V340 9999 BKN074/// 08/05 Q1026
Palermo (LICJ) 07.04.2020 16:50 UTC Zobrazit METAR
LICJ 071650Z 05011KT 9999 FEW025 16/12 Q1024
Palma de Mallorca (LEPA) 08.04.2020 00:00 UTC Zobrazit METAR
LEPA 080000Z 04003KT CAVOK 12/09 Q1026 NOSIG
Panama City (MPTO) 08.04.2020 00:00 UTC Zobrazit METAR
MPTO 080000Z 35012KT 9999 FEW018 SCT090 30/23 Q1009 NOSIG
Paramaribo (SMZO) 07.04.2020 22:00 UTC Zobrazit METAR
SMZO 072200Z 03009KT 9999 FEW012 28/24 Q1010 NOSIG
Paris (LFPG) 08.04.2020 00:00 UTC Zobrazit METAR
LFPG 080000Z AUTO 03006KT CAVOK 13/05 Q1025 NOSIG
Paro (VQPR) 07.04.2020 23:00 UTC Zobrazit METAR
VQPR 072300Z VRB02KT 6000 SCT020 BKN080 09/06 Q1021
Phnom Penh (VDPP) 08.04.2020 00:00 UTC Zobrazit METAR
VDPP 080000Z 16007KT 130V190 9999 SCT017 SCT040 29/22 Q1010
Plovdiv (LBPD) 05.04.2020 21:00 UTC Zobrazit METAR
LBPD 052100Z AUTO 29004KT 9999 OVC086 06/05 Q1026
Pohnpei I (PTPN) 07.04.2020 23:50 UTC Zobrazit METAR
PTPN 072350Z 07010KT 15SM SCT018 OVC300 31/25 A2986
Ponta Delgada (LPPD) 08.04.2020 00:00 UTC Zobrazit METAR
LPPD 080000Z 21015KT 6000 SCT004 BKN010 17/17 Q1011
Pori (EFPO) 07.04.2020 23:50 UTC Zobrazit METAR
EFPO 072350Z AUTO 27004KT CAVOK 01/M02 Q1024
Port Moresby (AYPY) 07.04.2020 23:00 UTC Zobrazit METAR
AYPY 072300Z 35005KT 9999 FEW030 FEW050 30/25 Q1011
Port of Spain (TTPP) 08.04.2020 00:00 UTC Zobrazit METAR
TTPP 080000Z 12005KT 9000 FEW018 26/22 Q1013 NOSIG
Port Vila (NVVV) 08.04.2020 00:00 UTC Zobrazit METAR
NVVV 080000Z 23008KT 9999 SCT020 29/25 Q1007
Port-au-Prince (MTPP) 07.04.2020 23:59 UTC Zobrazit METAR
MTPP 072359Z AUTO 30009KT 9000 ////// 28/24 Q1014 A2995 NOSIG
Porto (LPPR) 08.04.2020 00:00 UTC Zobrazit METAR
LPPR 080000Z 18005KT 9999 OVC011 14/14 Q1023
Poznan (EPPO) 08.04.2020 00:00 UTC Zobrazit METAR
EPPO 080000Z 03002KT CAVOK 05/00 Q1032
Prague (LKPR) 08.04.2020 00:00 UTC Zobrazit METAR
LKPR 080000Z 16007KT CAVOK 11/M05 Q1030 NOSIG
Praia (GVFM) Zatím nenačteno  
Pyongyang (ZKPY) Zatím nenačteno  
Reklama

Počasí na Váš email

Emaily jsou bez reklamy a bez spamu



Odhlásit newsletter

Reklama


Lunární kalendář

  • 15.04.
  • 23.04.
  • 30.04.
  • 07.05.





Vyhledat na internetu:
Reklama